sensor_id;sensor_type;location;lat;lon;timestamp;pressure;altitude;pressure_sealevel;temperature;humidity
68107;BME280;54892;47.488;19.026;2022-10-16T00:02:47;100500.78;;;15.04;68.50
68107;BME280;54892;47.488;19.026;2022-10-16T00:05:51;100491.22;;;15.03;68.43
68107;BME280;54892;47.488;19.026;2022-10-16T00:08:54;100490.44;;;15.02;68.34
68107;BME280;54892;47.488;19.026;2022-10-16T00:11:57;100494.69;;;15.03;68.29
68107;BME280;54892;47.488;19.026;2022-10-16T00:15:01;100492.56;;;15.00;68.13
68107;BME280;54892;47.488;19.026;2022-10-16T00:18:05;100485.66;;;14.99;68.24
68107;BME280;54892;47.488;19.026;2022-10-16T00:21:10;100492.31;;;14.97;68.15
68107;BME280;54892;47.488;19.026;2022-10-16T00:24:13;100494.69;;;14.98;67.92
68107;BME280;54892;47.488;19.026;2022-10-16T00:27:16;100498.94;;;14.99;67.89
68107;BME280;54892;47.488;19.026;2022-10-16T00:30:21;100504.03;;;14.96;67.86
68107;BME280;54892;47.488;19.026;2022-10-16T00:33:25;100506.69;;;14.96;67.79
68107;BME280;54892;47.488;19.026;2022-10-16T00:36:28;100506.97;;;14.94;67.57
68107;BME280;54892;47.488;19.026;2022-10-16T00:39:32;100505.09;;;14.95;67.72
68107;BME280;54892;47.488;19.026;2022-10-16T00:42:35;100517.06;;;14.92;67.71
68107;BME280;54892;47.488;19.026;2022-10-16T00:45:39;100508.81;;;14.88;67.74
68107;BME280;54892;47.488;19.026;2022-10-16T00:48:45;100512.81;;;14.91;67.83
68107;BME280;54892;47.488;19.026;2022-10-16T00:51:53;100504.31;;;14.84;67.96
68107;BME280;54892;47.488;19.026;2022-10-16T00:54:58;100504.06;;;14.80;68.13
68107;BME280;54892;47.488;19.026;2022-10-16T00:58:03;100514.72;;;14.80;68.07
68107;BME280;54892;47.488;19.026;2022-10-16T01:01:07;100517.66;;;14.79;68.14
68107;BME280;54892;47.488;19.026;2022-10-16T01:04:11;100526.16;;;14.75;68.18
68107;BME280;54892;47.488;19.026;2022-10-16T01:07:20;100528.53;;;14.72;68.24
68107;BME280;54892;47.488;19.026;2022-10-16T01:10:30;100531.72;;;14.74;67.78
68107;BME280;54892;47.488;19.026;2022-10-16T01:13:41;100527.75;;;14.71;68.13
68107;BME280;54892;47.488;19.026;2022-10-16T01:16:49;100532.50;;;14.64;68.47
68107;BME280;54892;47.488;19.026;2022-10-16T01:20:10;100526.41;;;14.64;68.77
68107;BME280;54892;47.488;19.026;2022-10-16T01:23:21;100533.31;;;14.65;68.87
68107;BME280;54892;47.488;19.026;2022-10-16T01:26:36;100536.78;;;14.50;69.00
68107;BME280;54892;47.488;19.026;2022-10-16T01:29:49;100537.34;;;14.41;69.49
68107;BME280;54892;47.488;19.026;2022-10-16T01:32:58;100538.66;;;14.28;69.84
68107;BME280;54892;47.488;19.026;2022-10-16T01:36:07;100537.59;;;14.29;69.74
68107;BME280;54892;47.488;19.026;2022-10-16T01:39:13;100544.78;;;14.24;69.73
68107;BME280;54892;47.488;19.026;2022-10-16T01:42:21;100542.91;;;14.19;69.48
68107;BME280;54892;47.488;19.026;2022-10-16T01:45:28;100542.37;;;14.12;69.84
68107;BME280;54892;47.488;19.026;2022-10-16T01:48:33;100540.53;;;14.12;69.60
68107;BME280;54892;47.488;19.026;2022-10-16T01:51:37;100544.22;;;14.06;69.71
68107;BME280;54892;47.488;19.026;2022-10-16T01:54:43;100546.63;;;14.03;70.17
68107;BME280;54892;47.488;19.026;2022-10-16T01:57:50;100556.44;;;13.97;70.44
68107;BME280;54892;47.488;19.026;2022-10-16T02:00:56;100556.97;;;13.83;70.70
68107;BME280;54892;47.488;19.026;2022-10-16T02:04:03;100557.97;;;13.72;70.81
68107;BME280;54892;47.488;19.026;2022-10-16T02:07:08;100573.34;;;13.60;71.34
68107;BME280;54892;47.488;19.026;2022-10-16T02:10:11;100567.50;;;13.52;71.51
68107;BME280;54892;47.488;19.026;2022-10-16T02:13:17;100570.31;;;13.35;71.91
68107;BME280;54892;47.488;19.026;2022-10-16T02:16:32;100572.56;;;13.06;72.84
68107;BME280;54892;47.488;19.026;2022-10-16T02:19:36;100568.78;;;12.91;73.50
68107;BME280;54892;47.488;19.026;2022-10-16T02:22:47;100565.06;;;12.92;73.38
68107;BME280;54892;47.488;19.026;2022-10-16T02:25:53;100560.81;;;12.86;73.56
68107;BME280;54892;47.488;19.026;2022-10-16T02:29:00;100562.13;;;12.89;73.45
68107;BME280;54892;47.488;19.026;2022-10-16T02:32:08;100568.66;;;12.71;74.27
68107;BME280;54892;47.488;19.026;2022-10-16T02:35:13;100575.16;;;12.53;74.66
68107;BME280;54892;47.488;19.026;2022-10-16T02:38:17;100569.44;;;12.33;75.70
68107;BME280;54892;47.488;19.026;2022-10-16T02:41:21;100582.19;;;12.37;75.44
68107;BME280;54892;47.488;19.026;2022-10-16T02:44:25;100575.28;;;12.36;75.56
68107;BME280;54892;47.488;19.026;2022-10-16T02:47:29;100573.94;;;12.33;75.84
68107;BME280;54892;47.488;19.026;2022-10-16T02:50:32;100574.22;;;12.37;75.52
68107;BME280;54892;47.488;19.026;2022-10-16T02:53:35;100579.25;;;12.33;75.74
68107;BME280;54892;47.488;19.026;2022-10-16T02:56:39;100576.44;;;12.45;75.55
68107;BME280;54892;47.488;19.026;2022-10-16T02:59:42;100589.06;;;12.38;76.04
68107;BME280;54892;47.488;19.026;2022-10-16T03:02:47;100592.31;;;12.45;75.94
68107;BME280;54892;47.488;19.026;2022-10-16T03:05:50;100594.84;;;12.34;76.43
68107;BME280;54892;47.488;19.026;2022-10-16T03:08:53;100588.16;;;12.22;76.63
68107;BME280;54892;47.488;19.026;2022-10-16T03:11:57;100583.44;;;12.01;77.30
68107;BME280;54892;47.488;19.026;2022-10-16T03:15:00;100593.09;;;12.13;76.71
68107;BME280;54892;47.488;19.026;2022-10-16T03:18:05;100592.53;;;12.11;76.55
68107;BME280;54892;47.488;19.026;2022-10-16T03:21:09;100595.75;;;12.13;76.46
68107;BME280;54892;47.488;19.026;2022-10-16T03:24:12;100595.69;;;12.08;76.70
68107;BME280;54892;47.488;19.026;2022-10-16T03:27:16;100597.88;;;12.16;76.77
68107;BME280;54892;47.488;19.026;2022-10-16T03:30:20;100604.25;;;12.20;76.77
68107;BME280;54892;47.488;19.026;2022-10-16T03:33:24;100612.19;;;12.20;77.20
68107;BME280;54892;47.488;19.026;2022-10-16T03:36:27;100609.00;;;12.18;77.21
68107;BME280;54892;47.488;19.026;2022-10-16T03:39:31;100615.44;;;12.00;77.81
68107;BME280;54892;47.488;19.026;2022-10-16T03:42:34;100614.97;;;12.03;77.51
68107;BME280;54892;47.488;19.026;2022-10-16T03:45:37;100616.19;;;11.95;77.69
68107;BME280;54892;47.488;19.026;2022-10-16T03:48:42;100623.13;;;12.01;77.53
68107;BME280;54892;47.488;19.026;2022-10-16T03:51:45;100622.56;;;11.99;77.70
68107;BME280;54892;47.488;19.026;2022-10-16T03:54:49;100623.25;;;11.90;77.99
68107;BME280;54892;47.488;19.026;2022-10-16T03:57:52;100621.09;;;11.86;77.95
68107;BME280;54892;47.488;19.026;2022-10-16T04:00:55;100621.78;;;11.77;78.13
68107;BME280;54892;47.488;19.026;2022-10-16T04:03:59;100624.44;;;11.77;78.16
68107;BME280;54892;47.488;19.026;2022-10-16T04:07:03;100622.63;;;11.82;78.29
68107;BME280;54892;47.488;19.026;2022-10-16T04:10:06;100631.13;;;11.84;78.24
68107;BME280;54892;47.488;19.026;2022-10-16T04:13:09;100636.84;;;11.76;78.33
68107;BME280;54892;47.488;19.026;2022-10-16T04:16:12;100637.03;;;11.69;78.44
68107;BME280;54892;47.488;19.026;2022-10-16T04:19:17;100637.66;;;11.54;78.92
68107;BME280;54892;47.488;19.026;2022-10-16T04:22:21;100633.16;;;11.55;78.84
68107;BME280;54892;47.488;19.026;2022-10-16T04:25:24;100632.06;;;11.51;79.16
68107;BME280;54892;47.488;19.026;2022-10-16T04:28:27;100630.31;;;11.39;79.25
68107;BME280;54892;47.488;19.026;2022-10-16T04:31:30;100637.37;;;11.34;79.34
68107;BME280;54892;47.488;19.026;2022-10-16T04:34:35;100637.16;;;11.35;79.30
68107;BME280;54892;47.488;19.026;2022-10-16T04:37:40;100638.06;;;11.46;79.04
68107;BME280;54892;47.488;19.026;2022-10-16T04:40:43;100646.50;;;11.43;79.32
68107;BME280;54892;47.488;19.026;2022-10-16T04:43:46;100639.84;;;11.40;79.25
68107;BME280;54892;47.488;19.026;2022-10-16T04:46:50;100647.09;;;11.28;79.34
68107;BME280;54892;47.488;19.026;2022-10-16T04:49:54;100643.03;;;11.20;79.86
68107;BME280;54892;47.488;19.026;2022-10-16T04:52:58;100646.78;;;11.24;79.57
68107;BME280;54892;47.488;19.026;2022-10-16T04:56:02;100651.34;;;11.29;79.39
68107;BME280;54892;47.488;19.026;2022-10-16T04:59:05;100651.13;;;11.14;79.89
68107;BME280;54892;47.488;19.026;2022-10-16T05:02:09;100667.06;;;11.19;79.68
68107;BME280;54892;47.488;19.026;2022-10-16T05:05:13;100672.81;;;11.16;79.92
68107;BME280;54892;47.488;19.026;2022-10-16T05:08:17;100669.12;;;11.17;79.62
68107;BME280;54892;47.488;19.026;2022-10-16T05:11:20;100661.28;;;11.05;79.71
68107;BME280;54892;47.488;19.026;2022-10-16T05:14:24;100658.19;;;11.08;79.44
68107;BME280;54892;47.488;19.026;2022-10-16T05:17:27;100660.91;;;11.13;79.41
68107;BME280;54892;47.488;19.026;2022-10-16T05:20:32;100666.81;;;11.20;79.64
68107;BME280;54892;47.488;19.026;2022-10-16T05:23:35;100671.13;;;11.26;79.57
68107;BME280;54892;47.488;19.026;2022-10-16T05:26:40;100676.50;;;11.15;79.85
68107;BME280;54892;47.488;19.026;2022-10-16T05:29:44;100680.59;;;11.05;80.11
68107;BME280;54892;47.488;19.026;2022-10-16T05:32:48;100683.78;;;11.07;80.09
68107;BME280;54892;47.488;19.026;2022-10-16T05:35:52;100687.38;;;11.18;80.04
68107;BME280;54892;47.488;19.026;2022-10-16T05:38:57;100685.53;;;11.02;80.46
68107;BME280;54892;47.488;19.026;2022-10-16T05:42:01;100690.81;;;11.02;80.42
68107;BME280;54892;47.488;19.026;2022-10-16T05:45:06;100693.16;;;10.98;80.46
68107;BME280;54892;47.488;19.026;2022-10-16T05:48:09;100694.75;;;10.99;80.30
68107;BME280;54892;47.488;19.026;2022-10-16T05:51:14;100686.69;;;10.89;80.67
68107;BME280;54892;47.488;19.026;2022-10-16T05:54:18;100688.19;;;10.85;80.81
68107;BME280;54892;47.488;19.026;2022-10-16T05:57:21;100693.16;;;10.81;80.78
68107;BME280;54892;47.488;19.026;2022-10-16T06:00:26;100695.66;;;10.88;80.72
68107;BME280;54892;47.488;19.026;2022-10-16T06:03:29;100699.47;;;10.97;80.25
68107;BME280;54892;47.488;19.026;2022-10-16T06:06:34;100705.94;;;11.06;79.63
68107;BME280;54892;47.488;19.026;2022-10-16T06:09:38;100703.97;;;11.14;79.30
68107;BME280;54892;47.488;19.026;2022-10-16T06:12:42;100711.00;;;11.25;78.89
68107;BME280;54892;47.488;19.026;2022-10-16T06:15:46;100716.66;;;11.34;78.42
68107;BME280;54892;47.488;19.026;2022-10-16T06:18:50;100725.63;;;11.50;77.28
68107;BME280;54892;47.488;19.026;2022-10-16T06:21:55;100730.69;;;11.73;76.60
68107;BME280;54892;47.488;19.026;2022-10-16T06:25:00;100722.66;;;12.30;73.77
68107;BME280;54892;47.488;19.026;2022-10-16T06:28:04;100723.69;;;12.51;72.73
68107;BME280;54892;47.488;19.026;2022-10-16T06:31:09;100734.34;;;12.61;73.23
68107;BME280;54892;47.488;19.026;2022-10-16T06:34:12;100748.06;;;12.53;73.36
68107;BME280;54892;47.488;19.026;2022-10-16T06:37:17;100745.22;;;12.92;72.05
68107;BME280;54892;47.488;19.026;2022-10-16T06:40:20;100748.56;;;13.43;69.86
68107;BME280;54892;47.488;19.026;2022-10-16T06:43:24;100769.37;;;13.66;68.39
68107;BME280;54892;47.488;19.026;2022-10-16T06:46:27;100764.75;;;13.89;65.17
68107;BME280;54892;47.488;19.026;2022-10-16T06:49:30;100766.00;;;13.76;65.87
68107;BME280;54892;47.488;19.026;2022-10-16T06:52:35;100768.87;;;13.69;67.19
68107;BME280;54892;47.488;19.026;2022-10-16T06:55:38;100760.16;;;13.74;66.53
68107;BME280;54892;47.488;19.026;2022-10-16T06:58:42;100776.19;;;13.95;66.56
68107;BME280;54892;47.488;19.026;2022-10-16T07:01:46;100774.72;;;14.35;65.21
68107;BME280;54892;47.488;19.026;2022-10-16T07:04:49;100779.03;;;14.52;64.35
68107;BME280;54892;47.488;19.026;2022-10-16T07:07:54;100790.19;;;14.43;64.16
68107;BME280;54892;47.488;19.026;2022-10-16T07:11:01;100787.00;;;14.46;63.57
68107;BME280;54892;47.488;19.026;2022-10-16T07:14:04;100785.91;;;14.32;63.63
68107;BME280;54892;47.488;19.026;2022-10-16T07:17:07;100785.06;;;14.21;64.37
68107;BME280;54892;47.488;19.026;2022-10-16T07:20:11;100798.00;;;14.07;65.12
68107;BME280;54892;47.488;19.026;2022-10-16T07:23:16;100806.19;;;14.00;66.00
68107;BME280;54892;47.488;19.026;2022-10-16T07:26:19;100801.66;;;13.96;64.87
68107;BME280;54892;47.488;19.026;2022-10-16T07:29:22;100811.69;;;13.89;65.83
68107;BME280;54892;47.488;19.026;2022-10-16T07:32:25;100817.91;;;14.05;63.59
68107;BME280;54892;47.488;19.026;2022-10-16T07:35:29;100823.69;;;13.96;65.14
68107;BME280;54892;47.488;19.026;2022-10-16T07:38:33;100814.94;;;13.96;64.54
68107;BME280;54892;47.488;19.026;2022-10-16T07:41:36;100823.69;;;13.96;64.43
68107;BME280;54892;47.488;19.026;2022-10-16T07:44:39;100820.88;;;14.19;64.88
68107;BME280;54892;47.488;19.026;2022-10-16T07:47:43;100825.56;;;14.65;63.62
68107;BME280;54892;47.488;19.026;2022-10-16T07:50:46;100818.75;;;15.46;59.38
68107;BME280;54892;47.488;19.026;2022-10-16T07:53:51;100825.38;;;15.64;60.09
68107;BME280;54892;47.488;19.026;2022-10-16T07:56:55;100829.13;;;15.43;59.75
68107;BME280;54892;47.488;19.026;2022-10-16T07:59:58;100829.66;;;15.45;59.66
68107;BME280;54892;47.488;19.026;2022-10-16T08:03:02;100844.03;;;15.38;59.57
68107;BME280;54892;47.488;19.026;2022-10-16T08:06:05;100845.62;;;15.50;59.68
68107;BME280;54892;47.488;19.026;2022-10-16T08:09:10;100842.69;;;15.36;59.37
68107;BME280;54892;47.488;19.026;2022-10-16T08:12:13;100851.19;;;15.12;61.43
68107;BME280;54892;47.488;19.026;2022-10-16T08:15:16;100849.63;;;15.32;60.14
68107;BME280;54892;47.488;19.026;2022-10-16T08:18:20;100852.00;;;15.23;61.33
68107;BME280;54892;47.488;19.026;2022-10-16T08:21:23;100848.00;;;15.10;60.79
68107;BME280;54892;47.488;19.026;2022-10-16T08:24:28;100855.69;;;15.12;61.94
68107;BME280;54892;47.488;19.026;2022-10-16T08:27:33;100862.84;;;14.85;61.73
68107;BME280;54892;47.488;19.026;2022-10-16T08:30:37;100878.25;;;14.88;60.51
68107;BME280;54892;47.488;19.026;2022-10-16T08:33:41;100874.37;;;14.48;62.80
68107;BME280;54892;47.488;19.026;2022-10-16T08:36:45;100876.63;;;14.72;63.18
68107;BME280;54892;47.488;19.026;2022-10-16T08:39:50;100874.78;;;14.83;63.64
68107;BME280;54892;47.488;19.026;2022-10-16T08:43:11;100884.69;;;14.98;62.74
68107;BME280;54892;47.488;19.026;2022-10-16T08:46:34;100883.31;;;14.85;61.99
68107;BME280;54892;47.488;19.026;2022-10-16T08:49:41;100874.28;;;14.86;62.33
68107;BME280;54892;47.488;19.026;2022-10-16T08:52:46;100878.53;;;14.97;62.57
68107;BME280;54892;47.488;19.026;2022-10-16T08:55:51;100876.75;;;15.29;60.59
68107;BME280;54892;47.488;19.026;2022-10-16T08:58:57;100883.88;;;15.13;60.88
68107;BME280;54892;47.488;19.026;2022-10-16T09:02:18;100883.12;;;15.22;61.06
68107;BME280;54892;47.488;19.026;2022-10-16T09:09:07;100882.06;;;15.34;61.42
68107;BME280;54892;47.488;19.026;2022-10-16T09:12:19;100888.44;;;15.38;60.14
68107;BME280;54892;47.488;19.026;2022-10-16T09:15:29;100890.84;;;15.45;60.93
68107;BME280;54892;47.488;19.026;2022-10-16T09:18:40;100893.50;;;15.60;60.34
68107;BME280;54892;47.488;19.026;2022-10-16T09:21:49;100887.13;;;15.66;60.54
68107;BME280;54892;47.488;19.026;2022-10-16T09:24:54;100886.59;;;15.64;61.03
68107;BME280;54892;47.488;19.026;2022-10-16T09:27:59;100897.50;;;15.42;60.80
68107;BME280;54892;47.488;19.026;2022-10-16T09:31:03;100895.09;;;15.46;61.07
68107;BME280;54892;47.488;19.026;2022-10-16T09:34:08;100890.56;;;15.67;60.85
68107;BME280;54892;47.488;19.026;2022-10-16T09:37:22;100890.84;;;15.81;60.16
68107;BME280;54892;47.488;19.026;2022-10-16T09:40:29;100889.28;;;15.85;60.19
68107;BME280;54892;47.488;19.026;2022-10-16T09:43:39;100886.06;;;15.93;59.89
68107;BME280;54892;47.488;19.026;2022-10-16T09:46:44;100894.03;;;15.98;60.20
68107;BME280;54892;47.488;19.026;2022-10-16T09:49:52;100890.56;;;15.98;60.37
68107;BME280;54892;47.488;19.026;2022-10-16T09:53:06;100894.28;;;16.02;60.66
68107;BME280;54892;47.488;19.026;2022-10-16T09:56:10;100902.81;;;16.09;60.30
68107;BME280;54892;47.488;19.026;2022-10-16T09:59:18;100896.91;;;16.18;60.48
68107;BME280;54892;47.488;19.026;2022-10-16T10:02:27;100903.25;;;16.37;60.28
68107;BME280;54892;47.488;19.026;2022-10-16T10:05:32;100903.75;;;16.50;60.52
68107;BME280;54892;47.488;19.026;2022-10-16T10:08:36;100911.44;;;16.62;59.46
68107;BME280;54892;47.488;19.026;2022-10-16T10:11:46;100904.97;;;16.78;58.21
68107;BME280;54892;47.488;19.026;2022-10-16T10:14:53;100897.50;;;16.75;58.68
68107;BME280;54892;47.488;19.026;2022-10-16T10:17:58;100891.37;;;16.74;58.53
68107;BME280;54892;47.488;19.026;2022-10-16T10:21:02;100890.06;;;16.72;58.90
68107;BME280;54892;47.488;19.026;2022-10-16T10:24:10;100883.38;;;16.74;58.35
68107;BME280;54892;47.488;19.026;2022-10-16T10:27:16;100888.91;;;16.88;58.95
68107;BME280;54892;47.488;19.026;2022-10-16T10:30:24;100881.44;;;16.96;58.38
68107;BME280;54892;47.488;19.026;2022-10-16T10:33:34;100878.19;;;16.99;58.94
68107;BME280;54892;47.488;19.026;2022-10-16T10:36:41;100882.94;;;17.12;57.52
68107;BME280;54892;47.488;19.026;2022-10-16T10:39:52;100879.69;;;17.15;58.01
68107;BME280;54892;47.488;19.026;2022-10-16T10:43:01;100872.84;;;17.04;57.13
68107;BME280;54892;47.488;19.026;2022-10-16T10:46:14;100876.97;;;17.26;57.16
68107;BME280;54892;47.488;19.026;2022-10-16T10:49:34;100875.38;;;17.25;58.54
68107;BME280;54892;47.488;19.026;2022-10-16T10:52:53;100876.28;;;17.44;57.44
68107;BME280;54892;47.488;19.026;2022-10-16T10:56:07;100876.09;;;17.65;55.97
68107;BME280;54892;47.488;19.026;2022-10-16T11:03:04;100879.62;;;17.60;55.10
68107;BME280;54892;47.488;19.026;2022-10-16T11:06:15;100873.66;;;17.69;55.37
68107;BME280;54892;47.488;19.026;2022-10-16T11:09:23;100879.84;;;17.64;55.13
68107;BME280;54892;47.488;19.026;2022-10-16T11:12:32;100880.00;;;17.78;54.17
68107;BME280;54892;47.488;19.026;2022-10-16T11:15:39;100864.75;;;17.78;54.33
68107;BME280;54892;47.488;19.026;2022-10-16T11:18:50;100875.97;;;17.80;53.61
68107;BME280;54892;47.488;19.026;2022-10-16T11:22:01;100868.34;;;17.93;53.47
68107;BME280;54892;47.488;19.026;2022-10-16T11:25:16;100863.22;;;18.02;54.41
68107;BME280;54892;47.488;19.026;2022-10-16T11:28:26;100862.16;;;18.03;53.29
68107;BME280;54892;47.488;19.026;2022-10-16T11:31:36;100858.28;;;18.14;52.57
68107;BME280;54892;47.488;19.026;2022-10-16T11:34:44;100850.59;;;18.07;54.11
68107;BME280;54892;47.488;19.026;2022-10-16T11:37:52;100853.25;;;18.32;53.28
68107;BME280;54892;47.488;19.026;2022-10-16T11:41:01;100846.97;;;18.22;53.51
68107;BME280;54892;47.488;19.026;2022-10-16T11:44:19;100857.81;;;18.31;52.72
68107;BME280;54892;47.488;19.026;2022-10-16T11:47:31;100856.56;;;18.48;52.04
68107;BME280;54892;47.488;19.026;2022-10-16T11:51:02;100857.87;;;18.26;52.68
68107;BME280;54892;47.488;19.026;2022-10-16T11:54:16;100861.22;;;18.37;52.62
68107;BME280;54892;47.488;19.026;2022-10-16T11:57:25;100852.91;;;18.38;53.30
68107;BME280;54892;47.488;19.026;2022-10-16T12:00:34;100848.97;;;18.55;53.17
68107;BME280;54892;47.488;19.026;2022-10-16T12:03:43;100843.59;;;18.55;53.55
68107;BME280;54892;47.488;19.026;2022-10-16T12:06:55;100850.13;;;18.87;52.07
68107;BME280;54892;47.488;19.026;2022-10-16T12:10:10;100841.88;;;18.83;52.78
68107;BME280;54892;47.488;19.026;2022-10-16T12:13:33;100841.31;;;18.86;52.68
68107;BME280;54892;47.488;19.026;2022-10-16T12:16:37;100840.09;;;18.98;53.20
68107;BME280;54892;47.488;19.026;2022-10-16T12:19:41;100839.06;;;18.94;52.25
68107;BME280;54892;47.488;19.026;2022-10-16T12:22:50;100829.84;;;19.05;51.55
68107;BME280;54892;47.488;19.026;2022-10-16T12:25:57;100829.41;;;18.98;52.53
68107;BME280;54892;47.488;19.026;2022-10-16T12:29:13;100832.22;;;19.07;51.49
68107;BME280;54892;47.488;19.026;2022-10-16T12:32:29;100830.69;;;19.00;51.74
68107;BME280;54892;47.488;19.026;2022-10-16T12:35:49;100834.38;;;19.05;50.81
68107;BME280;54892;47.488;19.026;2022-10-16T12:38:54;100826.53;;;19.27;49.16
68107;BME280;54892;47.488;19.026;2022-10-16T12:42:03;100834.94;;;19.21;50.56
68107;BME280;54892;47.488;19.026;2022-10-16T12:45:23;100830.44;;;19.16;50.15
68107;BME280;54892;47.488;19.026;2022-10-16T12:48:27;100829.28;;;19.22;50.54
68107;BME280;54892;47.488;19.026;2022-10-16T12:51:35;100830.94;;;19.18;50.64
68107;BME280;54892;47.488;19.026;2022-10-16T12:54:40;100821.44;;;19.12;51.28
68107;BME280;54892;47.488;19.026;2022-10-16T12:58:00;100831.69;;;19.05;51.45
68107;BME280;54892;47.488;19.026;2022-10-16T13:01:12;100831.56;;;19.15;51.46
68107;BME280;54892;47.488;19.026;2022-10-16T13:04:47;100839.78;;;19.19;51.21
68107;BME280;54892;47.488;19.026;2022-10-16T13:08:02;100839.91;;;19.27;50.76
68107;BME280;54892;47.488;19.026;2022-10-16T13:11:16;100841.75;;;19.46;49.76
68107;BME280;54892;47.488;19.026;2022-10-16T13:14:58;100844.00;;;19.39;49.23
68107;BME280;54892;47.488;19.026;2022-10-16T13:18:12;100845.16;;;19.32;49.97
68107;BME280;54892;47.488;19.026;2022-10-16T13:21:25;100845.78;;;19.43;49.24
68107;BME280;54892;47.488;19.026;2022-10-16T13:24:47;100844.88;;;19.34;50.26
68107;BME280;54892;47.488;19.026;2022-10-16T13:27:56;100850.37;;;19.43;50.12
68107;BME280;54892;47.488;19.026;2022-10-16T13:31:15;100847.84;;;19.32;50.26
68107;BME280;54892;47.488;19.026;2022-10-16T13:34:21;100851.41;;;19.28;50.14
68107;BME280;54892;47.488;19.026;2022-10-16T13:37:25;100849.59;;;19.23;50.63
68107;BME280;54892;47.488;19.026;2022-10-16T13:40:29;100852.72;;;19.30;49.86
68107;BME280;54892;47.488;19.026;2022-10-16T13:43:35;100849.03;;;19.26;50.41
68107;BME280;54892;47.488;19.026;2022-10-16T13:46:40;100843.09;;;19.29;49.29
68107;BME280;54892;47.488;19.026;2022-10-16T13:49:44;100845.78;;;19.29;49.01
68107;BME280;54892;47.488;19.026;2022-10-16T13:52:48;100848.06;;;19.36;48.80
68107;BME280;54892;47.488;19.026;2022-10-16T13:55:51;100855.88;;;19.32;49.45
68107;BME280;54892;47.488;19.026;2022-10-16T13:59:00;100857.44;;;19.20;50.63
68107;BME280;54892;47.488;19.026;2022-10-16T14:02:15;100858.72;;;19.22;50.31
68107;BME280;54892;47.488;19.026;2022-10-16T14:05:20;100858.06;;;19.30;49.63
68107;BME280;54892;47.488;19.026;2022-10-16T14:08:25;100859.75;;;19.40;49.26
68107;BME280;54892;47.488;19.026;2022-10-16T14:11:29;100855.62;;;19.48;49.06
68107;BME280;54892;47.488;19.026;2022-10-16T14:14:35;100859.88;;;19.35;49.66
68107;BME280;54892;47.488;19.026;2022-10-16T14:17:44;100858.06;;;19.30;49.62
68107;BME280;54892;47.488;19.026;2022-10-16T14:20:49;100851.78;;;19.21;50.36
68107;BME280;54892;47.488;19.026;2022-10-16T14:23:52;100859.69;;;19.12;50.80
68107;BME280;54892;47.488;19.026;2022-10-16T14:26:56;100853.44;;;19.17;50.20
68107;BME280;54892;47.488;19.026;2022-10-16T14:30:14;100848.03;;;19.22;49.79
68107;BME280;54892;47.488;19.026;2022-10-16T14:33:21;100852.59;;;19.22;50.42
68107;BME280;54892;47.488;19.026;2022-10-16T14:36:26;100855.34;;;19.16;50.52
68107;BME280;54892;47.488;19.026;2022-10-16T14:39:30;100856.34;;;19.21;49.92
68107;BME280;54892;47.488;19.026;2022-10-16T14:42:34;100850.56;;;19.13;49.82
68107;BME280;54892;47.488;19.026;2022-10-16T14:45:39;100853.53;;;19.12;50.20
68107;BME280;54892;47.488;19.026;2022-10-16T14:48:46;100857.09;;;19.07;50.31
68107;BME280;54892;47.488;19.026;2022-10-16T14:51:50;100858.56;;;18.99;50.87
68107;BME280;54892;47.488;19.026;2022-10-16T14:54:54;100863.75;;;19.10;50.06
68107;BME280;54892;47.488;19.026;2022-10-16T14:57:58;100857.37;;;19.06;50.40
68107;BME280;54892;47.488;19.026;2022-10-16T15:01:03;100859.41;;;18.95;50.86
68107;BME280;54892;47.488;19.026;2022-10-16T15:04:09;100858.97;;;19.07;50.22
68107;BME280;54892;47.488;19.026;2022-10-16T15:07:12;100857.78;;;18.94;50.91
68107;BME280;54892;47.488;19.026;2022-10-16T15:10:16;100854.84;;;18.95;50.25
68107;BME280;54892;47.488;19.026;2022-10-16T15:13:19;100852.22;;;18.90;50.66
68107;BME280;54892;47.488;19.026;2022-10-16T15:16:24;100859.69;;;18.74;51.60
68107;BME280;54892;47.488;19.026;2022-10-16T15:19:27;100872.03;;;18.70;52.30
68107;BME280;54892;47.488;19.026;2022-10-16T15:25:37;100886.12;;;18.56;53.08
68107;BME280;54892;47.488;19.026;2022-10-16T15:28:41;100883.06;;;18.44;54.06
68107;BME280;54892;47.488;19.026;2022-10-16T15:31:46;100883.72;;;18.31;54.75
68107;BME280;54892;47.488;19.026;2022-10-16T15:34:50;100887.81;;;18.23;54.98
68107;BME280;54892;47.488;19.026;2022-10-16T15:37:53;100886.66;;;18.10;55.45
68107;BME280;54892;47.488;19.026;2022-10-16T15:40:56;100898.25;;;18.00;55.98
68107;BME280;54892;47.488;19.026;2022-10-16T15:43:59;100891.09;;;17.90;56.58
68107;BME280;54892;47.488;19.026;2022-10-16T15:47:04;100887.72;;;17.79;57.13
68107;BME280;54892;47.488;19.026;2022-10-16T15:50:09;100896.88;;;17.73;57.51
68107;BME280;54892;47.488;19.026;2022-10-16T15:53:13;100902.56;;;17.61;58.29
68107;BME280;54892;47.488;19.026;2022-10-16T15:56:17;100897.87;;;17.48;58.88
68107;BME280;54892;47.488;19.026;2022-10-16T15:59:20;100894.50;;;17.37;59.45
68107;BME280;54892;47.488;19.026;2022-10-16T16:02:25;100890.31;;;17.26;59.77
68107;BME280;54892;47.488;19.026;2022-10-16T16:05:28;100889.03;;;17.18;60.13
68107;BME280;54892;47.488;19.026;2022-10-16T16:08:33;100904.31;;;17.07;60.59
68107;BME280;54892;47.488;19.026;2022-10-16T16:11:36;100912.38;;;16.97;61.00
68107;BME280;54892;47.488;19.026;2022-10-16T16:14:40;100916.31;;;17.04;60.88